createdAt,value
2018-06-29T00:06:43.277Z,0
2018-06-29T00:16:57.102Z,0
2018-06-29T00:27:11.422Z,0
2018-06-29T00:37:25.133Z,0
2018-06-29T00:47:40.536Z,0
2018-06-29T00:57:55.774Z,0
2018-06-29T01:08:09.464Z,0
2018-06-29T01:18:25.018Z,0
2018-06-29T01:28:40.734Z,0
2018-06-29T01:38:54.862Z,0
2018-06-29T01:49:10.708Z,0
2018-06-29T01:59:25.625Z,0
2018-06-29T02:09:39.540Z,0
2018-06-29T02:19:53.715Z,0
2018-06-29T02:30:08.226Z,0
2018-06-29T02:40:22.112Z,0
2018-06-29T02:50:36.387Z,0
2018-06-29T03:00:50.322Z,5
2018-06-29T03:11:04.278Z,10
2018-06-29T03:21:19.907Z,20
2018-06-29T03:31:35.102Z,30
2018-06-29T03:41:50.803Z,45
2018-06-29T03:52:06.280Z,65
2018-06-29T04:02:21.097Z,80
2018-06-29T04:12:34.990Z,95
2018-06-29T04:22:50.439Z,100
2018-06-29T04:33:05.037Z,115
2018-06-29T04:43:20.177Z,130
2018-06-29T04:53:34.977Z,140
2018-06-29T05:03:48.904Z,150
2018-06-29T05:14:04.335Z,170
2018-06-29T05:24:19.708Z,160
2018-06-29T05:34:34.746Z,170
2018-06-29T05:44:50.189Z,180
2018-06-29T05:55:04.942Z,190
2018-06-29T06:05:20.824Z,715
2018-06-29T06:15:36.308Z,940
2018-06-29T06:25:50.972Z,1015
2018-06-29T06:36:06.075Z,1030
2018-06-29T06:46:20.611Z,1070
2018-06-29T06:56:35.866Z,1175
2018-06-29T07:06:50.118Z,1200
2018-06-29T07:17:05.266Z,1265
2018-06-29T07:27:19.991Z,1340
2018-06-29T07:37:35.386Z,1405
2018-06-29T07:47:50.536Z,1440
2018-06-29T07:58:04.252Z,1520
2018-06-29T08:08:19.612Z,1545
2018-06-29T08:18:34.746Z,1655
2018-06-29T08:28:48.813Z,1610
2018-06-29T08:39:03.500Z,1615
2018-06-29T08:49:18.716Z,1785
2018-06-29T08:59:33.632Z,1735
2018-06-29T09:09:49.223Z,1765
2018-06-29T09:20:03.242Z,1865
2018-06-29T09:30:18.738Z,1900
2018-06-29T09:40:32.932Z,1915
2018-06-29T09:50:48.307Z,1970
2018-06-29T10:01:04.145Z,1990
2018-06-29T10:11:18.692Z,1980
2018-06-29T10:21:33.022Z,2035
2018-06-29T10:31:48.726Z,1965
2018-06-29T10:42:04.485Z,2100
2018-06-29T10:52:20.225Z,2095
2018-06-29T11:02:34.243Z,2140
2018-06-29T11:12:49.920Z,2125
2018-06-29T11:23:05.850Z,2135
2018-06-29T11:33:19.989Z,2090
2018-06-29T11:43:35.616Z,2090
2018-06-29T11:53:49.658Z,2140
2018-06-29T12:04:03.769Z,2085
2018-06-29T12:14:18.122Z,2195
2018-06-29T12:24:33.164Z,1985
2018-06-29T12:34:47.878Z,1930
2018-06-29T12:45:02.535Z,2015
2018-06-29T12:55:18.236Z,1940
2018-06-29T13:05:34.373Z,1800
2018-06-29T13:15:49.341Z,1615
2018-06-29T13:26:04.534Z,1415
2018-06-29T13:36:18.814Z,1325
2018-06-29T13:46:33.991Z,1110
2018-06-29T13:56:48.717Z,985
2018-06-29T14:07:03.405Z,1035
2018-06-29T14:17:18.577Z,1250
2018-06-29T14:27:33.514Z,1815
2018-06-29T14:37:48.590Z,3290
2018-06-29T14:48:03.396Z,2200
2018-06-29T14:58:18.392Z,2025
2018-06-29T15:08:33.338Z,1790
2018-06-29T15:18:49.176Z,1785
2018-06-29T15:29:05.153Z,1565
2018-06-29T15:39:20.842Z,1470
2018-06-29T15:49:35.030Z,1490
2018-06-29T15:59:49.407Z,1470
2018-06-29T16:10:03.831Z,1335
2018-06-29T16:20:19.249Z,1195
2018-06-29T16:30:34.261Z,970
2018-06-29T16:40:48.124Z,860
2018-06-29T16:51:02.955Z,450
2018-06-29T17:01:18.263Z,390
2018-06-29T17:11:32.790Z,365
2018-06-29T17:21:48.140Z,335
2018-06-29T17:32:03.862Z,315
2018-06-29T17:42:18.330Z,295
2018-06-29T17:52:32.686Z,270
2018-06-29T18:02:47.664Z,200
2018-06-29T18:13:02.239Z,180
2018-06-29T18:23:16.340Z,160
2018-06-29T18:33:31.883Z,140
2018-06-29T18:43:46.752Z,120
2018-06-29T18:54:02.015Z,100
2018-06-29T19:04:16.114Z,85
2018-06-29T19:14:29.912Z,70
2018-06-29T19:24:45.324Z,50
2018-06-29T19:35:01.026Z,35
2018-06-29T19:45:15.362Z,20
2018-06-29T19:55:29.517Z,10
2018-06-29T20:05:45.529Z,5
2018-06-29T20:15:58.822Z,0
2018-06-29T20:26:13.649Z,0
2018-06-29T20:36:27.184Z,0
2018-06-29T20:46:41.130Z,0
2018-06-29T20:56:55.165Z,0
2018-06-29T21:07:09.861Z,0
2018-06-29T21:17:25.128Z,0
2018-06-29T21:27:40.360Z,0
2018-06-29T21:37:54.103Z,0
2018-06-29T21:48:09.666Z,0
2018-06-29T21:58:24.431Z,0
2018-06-29T22:08:39.912Z,0
2018-06-29T22:18:55.028Z,0
2018-06-29T22:29:09.698Z,0
2018-06-29T22:39:25.222Z,0
2018-06-29T22:49:40.545Z,0
2018-06-29T22:59:55.605Z,0
2018-06-29T23:10:10.332Z,0
2018-06-29T23:20:24.155Z,0
2018-06-29T23:30:37.956Z,0
2018-06-29T23:40:53.160Z,0
2018-06-29T23:51:07.852Z,0
